sensor_id;sensor_type;location;lat;lon;timestamp;P1;durP1;ratioP1;P2;durP2;ratioP2
8944;SDS011;4507;40.232;29.132;2022-08-19T00:00:21;60.67;;;43.30;;
8944;SDS011;4507;40.232;29.132;2022-08-19T00:02:52;57.27;;;42.57;;
8944;SDS011;4507;40.232;29.132;2022-08-19T00:05:21;51.25;;;37.00;;
8944;SDS011;4507;40.232;29.132;2022-08-19T00:07:50;41.80;;;32.53;;
8944;SDS011;4507;40.232;29.132;2022-08-19T00:10:19;34.80;;;31.00;;
8944;SDS011;4507;40.232;29.132;2022-08-19T00:12:49;37.07;;;28.63;;
8944;SDS011;4507;40.232;29.132;2022-08-19T00:15:19;37.37;;;28.37;;
8944;SDS011;4507;40.232;29.132;2022-08-19T00:17:49;30.87;;;25.70;;
8944;SDS011;4507;40.232;29.132;2022-08-19T00:20:21;30.75;;;25.60;;
8944;SDS011;4507;40.232;29.132;2022-08-19T00:22:50;39.27;;;24.53;;
8944;SDS011;4507;40.232;29.132;2022-08-19T00:25:19;32.67;;;23.47;;
8944;SDS011;4507;40.232;29.132;2022-08-19T00:27:56;25.40;;;22.37;;
8944;SDS011;4507;40.232;29.132;2022-08-19T00:30:26;26.93;;;23.67;;
8944;SDS011;4507;40.232;29.132;2022-08-19T00:32:55;29.17;;;24.37;;
8944;SDS011;4507;40.232;29.132;2022-08-19T00:35:25;27.90;;;24.20;;
8944;SDS011;4507;40.232;29.132;2022-08-19T00:37:55;29.57;;;23.23;;
8944;SDS011;4507;40.232;29.132;2022-08-19T00:40:24;27.53;;;23.77;;
8944;SDS011;4507;40.232;29.132;2022-08-19T00:42:53;31.80;;;24.47;;
8944;SDS011;4507;40.232;29.132;2022-08-19T00:45:23;38.90;;;29.80;;
8944;SDS011;4507;40.232;29.132;2022-08-19T00:48:12;36.97;;;32.17;;
8944;SDS011;4507;40.232;29.132;2022-08-19T00:50:44;41.93;;;33.27;;
8944;SDS011;4507;40.232;29.132;2022-08-19T00:53:19;52.60;;;39.43;;
8944;SDS011;4507;40.232;29.132;2022-08-19T00:55:51;53.93;;;40.53;;
8944;SDS011;4507;40.232;29.132;2022-08-19T00:58:25;42.17;;;35.40;;
8944;SDS011;4507;40.232;29.132;2022-08-19T01:00:57;95.13;;;55.17;;
8944;SDS011;4507;40.232;29.132;2022-08-19T01:03:26;138.87;;;62.13;;
8944;SDS011;4507;40.232;29.132;2022-08-19T01:06:17;174.03;;;87.47;;
8944;SDS011;4507;40.232;29.132;2022-08-19T01:08:46;167.30;;;95.43;;
8944;SDS011;4507;40.232;29.132;2022-08-19T01:11:16;184.80;;;135.13;;
8944;SDS011;4507;40.232;29.132;2022-08-19T01:13:45;143.63;;;90.37;;
8944;SDS011;4507;40.232;29.132;2022-08-19T01:16:16;118.73;;;83.53;;
8944;SDS011;4507;40.232;29.132;2022-08-19T01:18:47;105.83;;;77.93;;
8944;SDS011;4507;40.232;29.132;2022-08-19T01:21:22;100.80;;;78.23;;
8944;SDS011;4507;40.232;29.132;2022-08-19T01:23:57;97.73;;;73.20;;
8944;SDS011;4507;40.232;29.132;2022-08-19T01:26:27;87.97;;;66.63;;
8944;SDS011;4507;40.232;29.132;2022-08-19T01:28:58;86.80;;;69.23;;
8944;SDS011;4507;40.232;29.132;2022-08-19T01:31:30;88.57;;;64.20;;
8944;SDS011;4507;40.232;29.132;2022-08-19T01:34:00;78.97;;;60.43;;
8944;SDS011;4507;40.232;29.132;2022-08-19T01:36:48;82.10;;;56.77;;
8944;SDS011;4507;40.232;29.132;2022-08-19T01:39:19;103.20;;;63.50;;
8944;SDS011;4507;40.232;29.132;2022-08-19T01:41:51;75.30;;;48.45;;
8944;SDS011;4507;40.232;29.132;2022-08-19T01:44:21;61.10;;;43.00;;
8944;SDS011;4507;40.232;29.132;2022-08-19T01:51:50;71.17;;;48.80;;
8944;SDS011;4507;40.232;29.132;2022-08-19T02:29:13;61.80;;;48.57;;
8944;SDS011;4507;40.232;29.132;2022-08-19T02:31:42;56.13;;;47.57;;
8944;SDS011;4507;40.232;29.132;2022-08-19T02:34:11;58.17;;;45.33;;
8944;SDS011;4507;40.232;29.132;2022-08-19T02:36:58;68.07;;;49.43;;
8944;SDS011;4507;40.232;29.132;2022-08-19T02:39:29;61.27;;;46.23;;
8944;SDS011;4507;40.232;29.132;2022-08-19T02:41:58;56.80;;;46.50;;
8944;SDS011;4507;40.232;29.132;2022-08-19T02:44:47;57.80;;;45.73;;
8944;SDS011;4507;40.232;29.132;2022-08-19T02:47:16;57.57;;;46.37;;
8944;SDS011;4507;40.232;29.132;2022-08-19T02:50:05;73.57;;;48.00;;
8944;SDS011;4507;40.232;29.132;2022-08-19T02:52:35;73.17;;;49.93;;
8944;SDS011;4507;40.232;29.132;2022-08-19T02:55:05;77.00;;;51.57;;
8944;SDS011;4507;40.232;29.132;2022-08-19T02:57:36;82.83;;;52.03;;
8944;SDS011;4507;40.232;29.132;2022-08-19T03:00:05;86.00;;;51.33;;
8944;SDS011;4507;40.232;29.132;2022-08-19T03:02:38;87.00;;;48.60;;
8944;SDS011;4507;40.232;29.132;2022-08-19T03:05:08;70.03;;;41.20;;
8944;SDS011;4507;40.232;29.132;2022-08-19T03:07:39;71.13;;;40.87;;
8944;SDS011;4507;40.232;29.132;2022-08-19T03:10:09;55.30;;;37.23;;
8944;SDS011;4507;40.232;29.132;2022-08-19T03:12:39;52.00;;;36.50;;
8944;SDS011;4507;40.232;29.132;2022-08-19T03:15:08;42.97;;;34.00;;
8944;SDS011;4507;40.232;29.132;2022-08-19T03:17:37;47.67;;;33.90;;
8944;SDS011;4507;40.232;29.132;2022-08-19T03:20:25;43.23;;;33.67;;
8944;SDS011;4507;40.232;29.132;2022-08-19T03:22:54;58.13;;;34.60;;
8944;SDS011;4507;40.232;29.132;2022-08-19T03:25:23;46.57;;;32.03;;
8944;SDS011;4507;40.232;29.132;2022-08-19T03:27:53;47.83;;;31.63;;
8944;SDS011;4507;40.232;29.132;2022-08-19T03:30:22;55.10;;;30.83;;
8944;SDS011;4507;40.232;29.132;2022-08-19T04:38:32;43.70;;;21.87;;
8944;SDS011;4507;40.232;29.132;2022-08-19T04:41:02;41.50;;;22.40;;
8944;SDS011;4507;40.232;29.132;2022-08-19T04:43:49;45.20;;;22.90;;
8944;SDS011;4507;40.232;29.132;2022-08-19T04:46:18;38.70;;;25.37;;
8944;SDS011;4507;40.232;29.132;2022-08-19T04:49:06;53.63;;;26.43;;
8944;SDS011;4507;40.232;29.132;2022-08-19T04:51:41;59.63;;;26.87;;
8944;SDS011;4507;40.232;29.132;2022-08-19T04:54:12;54.03;;;28.03;;
8944;SDS011;4507;40.232;29.132;2022-08-19T04:57:02;55.87;;;28.70;;
8944;SDS011;4507;40.232;29.132;2022-08-19T04:59:34;61.63;;;28.07;;
8944;SDS011;4507;40.232;29.132;2022-08-19T05:02:03;51.30;;;26.37;;
8944;SDS011;4507;40.232;29.132;2022-08-19T05:04:32;41.67;;;27.63;;
8944;SDS011;4507;40.232;29.132;2022-08-19T05:07:03;54.67;;;27.27;;
8944;SDS011;4507;40.232;29.132;2022-08-19T05:09:33;51.70;;;29.00;;
8944;SDS011;4507;40.232;29.132;2022-08-19T05:12:22;42.93;;;29.63;;
8944;SDS011;4507;40.232;29.132;2022-08-19T05:14:55;46.10;;;29.67;;
8944;SDS011;4507;40.232;29.132;2022-08-19T05:17:25;46.17;;;29.63;;
8944;SDS011;4507;40.232;29.132;2022-08-19T05:20:02;39.83;;;28.20;;
8944;SDS011;4507;40.232;29.132;2022-08-19T05:22:51;42.20;;;28.13;;
8944;SDS011;4507;40.232;29.132;2022-08-19T05:25:21;54.03;;;28.10;;
8944;SDS011;4507;40.232;29.132;2022-08-19T05:27:52;52.67;;;28.57;;
8944;SDS011;4507;40.232;29.132;2022-08-19T05:30:21;88.43;;;31.57;;
8944;SDS011;4507;40.232;29.132;2022-08-19T05:33:10;61.83;;;30.37;;
8944;SDS011;4507;40.232;29.132;2022-08-19T05:35:39;65.73;;;30.20;;
8944;SDS011;4507;40.232;29.132;2022-08-19T05:38:10;60.10;;;30.17;;
8944;SDS011;4507;40.232;29.132;2022-08-19T05:40:39;59.67;;;29.53;;
8944;SDS011;4507;40.232;29.132;2022-08-19T05:43:08;59.57;;;31.20;;
8944;SDS011;4507;40.232;29.132;2022-08-19T05:45:38;56.63;;;32.00;;
8944;SDS011;4507;40.232;29.132;2022-08-19T05:48:09;57.57;;;34.03;;
8944;SDS011;4507;40.232;29.132;2022-08-19T05:50:39;55.33;;;34.87;;
8944;SDS011;4507;40.232;29.132;2022-08-19T05:53:12;53.67;;;34.33;;
8944;SDS011;4507;40.232;29.132;2022-08-19T05:55:43;72.30;;;36.83;;
8944;SDS011;4507;40.232;29.132;2022-08-19T05:58:12;64.80;;;33.80;;
8944;SDS011;4507;40.232;29.132;2022-08-19T06:00:42;63.30;;;33.03;;
8944;SDS011;4507;40.232;29.132;2022-08-19T06:03:12;60.93;;;33.63;;
8944;SDS011;4507;40.232;29.132;2022-08-19T06:05:41;53.50;;;32.93;;
8944;SDS011;4507;40.232;29.132;2022-08-19T06:08:38;60.37;;;31.67;;
8944;SDS011;4507;40.232;29.132;2022-08-19T06:11:13;59.30;;;33.47;;
8944;SDS011;4507;40.232;29.132;2022-08-19T06:13:45;52.83;;;32.50;;
8944;SDS011;4507;40.232;29.132;2022-08-19T06:16:25;57.17;;;33.47;;
8944;SDS011;4507;40.232;29.132;2022-08-19T06:18:55;56.07;;;33.40;;
8944;SDS011;4507;40.232;29.132;2022-08-19T06:21:26;54.33;;;32.30;;
8944;SDS011;4507;40.232;29.132;2022-08-19T06:23:57;53.53;;;34.60;;
8944;SDS011;4507;40.232;29.132;2022-08-19T06:26:26;45.23;;;33.63;;
8944;SDS011;4507;40.232;29.132;2022-08-19T06:28:56;45.00;;;32.73;;
8944;SDS011;4507;40.232;29.132;2022-08-19T06:31:25;83.27;;;35.87;;
8944;SDS011;4507;40.232;29.132;2022-08-19T06:34:16;45.70;;;32.10;;
8944;SDS011;4507;40.232;29.132;2022-08-19T06:36:47;40.17;;;32.67;;
8944;SDS011;4507;40.232;29.132;2022-08-19T06:39:19;41.77;;;33.73;;
8944;SDS011;4507;40.232;29.132;2022-08-19T06:41:51;45.60;;;32.07;;
8944;SDS011;4507;40.232;29.132;2022-08-19T06:44:29;41.73;;;31.10;;
8944;SDS011;4507;40.232;29.132;2022-08-19T06:47:09;39.17;;;31.73;;
8944;SDS011;4507;40.232;29.132;2022-08-19T06:50:09;49.80;;;31.23;;
8944;SDS011;4507;40.232;29.132;2022-08-19T06:52:39;48.90;;;29.97;;
8944;SDS011;4507;40.232;29.132;2022-08-19T06:55:09;37.10;;;29.10;;
8944;SDS011;4507;40.232;29.132;2022-08-19T06:57:38;47.40;;;28.87;;
8944;SDS011;4507;40.232;29.132;2022-08-19T07:00:09;56.43;;;29.80;;
8944;SDS011;4507;40.232;29.132;2022-08-19T07:02:59;58.13;;;28.30;;
8944;SDS011;4507;40.232;29.132;2022-08-19T07:05:37;41.40;;;28.90;;
8944;SDS011;4507;40.232;29.132;2022-08-19T07:08:12;35.97;;;23.63;;
8944;SDS011;4507;40.232;29.132;2022-08-19T07:10:46;36.30;;;20.17;;
8944;SDS011;4507;40.232;29.132;2022-08-19T07:13:16;36.80;;;20.87;;
8944;SDS011;4507;40.232;29.132;2022-08-19T07:15:46;37.37;;;19.83;;
8944;SDS011;4507;40.232;29.132;2022-08-19T07:18:17;42.97;;;20.27;;
8944;SDS011;4507;40.232;29.132;2022-08-19T07:20:47;37.50;;;19.37;;
8944;SDS011;4507;40.232;29.132;2022-08-19T07:23:16;28.20;;;18.37;;
8944;SDS011;4507;40.232;29.132;2022-08-19T07:25:50;28.50;;;17.70;;
8944;SDS011;4507;40.232;29.132;2022-08-19T07:28:19;17.70;;;14.00;;
8944;SDS011;4507;40.232;29.132;2022-08-19T07:30:50;31.57;;;17.93;;
8944;SDS011;4507;40.232;29.132;2022-08-19T07:33:21;20.30;;;15.80;;
8944;SDS011;4507;40.232;29.132;2022-08-19T07:35:53;32.03;;;15.77;;
8944;SDS011;4507;40.232;29.132;2022-08-19T07:38:22;24.97;;;14.87;;
8944;SDS011;4507;40.232;29.132;2022-08-19T07:40:54;23.80;;;16.00;;
8944;SDS011;4507;40.232;29.132;2022-08-19T07:43:23;27.80;;;15.40;;
8944;SDS011;4507;40.232;29.132;2022-08-19T07:46:00;22.17;;;14.10;;
8944;SDS011;4507;40.232;29.132;2022-08-19T07:48:30;26.10;;;13.80;;
8944;SDS011;4507;40.232;29.132;2022-08-19T07:51:01;29.50;;;18.10;;
8944;SDS011;4507;40.232;29.132;2022-08-19T07:53:33;25.60;;;19.97;;
8944;SDS011;4507;40.232;29.132;2022-08-19T07:56:07;41.50;;;23.40;;
8944;SDS011;4507;40.232;29.132;2022-08-19T07:58:39;27.97;;;18.60;;
8944;SDS011;4507;40.232;29.132;2022-08-19T08:01:10;20.83;;;14.40;;
8944;SDS011;4507;40.232;29.132;2022-08-19T08:03:41;32.40;;;18.27;;
8944;SDS011;4507;40.232;29.132;2022-08-19T08:06:27;29.63;;;15.10;;
8944;SDS011;4507;40.232;29.132;2022-08-19T08:09:15;12.33;;;10.07;;
8944;SDS011;4507;40.232;29.132;2022-08-19T08:11:55;12.80;;;10.17;;
8944;SDS011;4507;40.232;29.132;2022-08-19T08:14:44;15.70;;;10.57;;
8944;SDS011;4507;40.232;29.132;2022-08-19T08:17:22;18.57;;;10.30;;
8944;SDS011;4507;40.232;29.132;2022-08-19T08:20:13;12.93;;;10.43;;
8944;SDS011;4507;40.232;29.132;2022-08-19T08:22:42;20.37;;;10.70;;
8944;SDS011;4507;40.232;29.132;2022-08-19T08:25:29;12.27;;;10.87;;
8944;SDS011;4507;40.232;29.132;2022-08-19T08:28:03;15.70;;;11.03;;
8944;SDS011;4507;40.232;29.132;2022-08-19T08:30:32;15.70;;;11.87;;
8944;SDS011;4507;40.232;29.132;2022-08-19T08:33:03;12.90;;;11.30;;
8944;SDS011;4507;40.232;29.132;2022-08-19T08:35:33;17.57;;;11.60;;
8944;SDS011;4507;40.232;29.132;2022-08-19T08:38:02;13.77;;;12.03;;
8944;SDS011;4507;40.232;29.132;2022-08-19T08:40:36;15.53;;;11.67;;
8944;SDS011;4507;40.232;29.132;2022-08-19T08:43:14;29.60;;;14.77;;
8944;SDS011;4507;40.232;29.132;2022-08-19T08:45:52;20.50;;;12.90;;
8944;SDS011;4507;40.232;29.132;2022-08-19T08:48:25;22.13;;;11.97;;
8944;SDS011;4507;40.232;29.132;2022-08-19T08:51:03;25.53;;;12.13;;
8944;SDS011;4507;40.232;29.132;2022-08-19T08:53:55;23.50;;;11.77;;
8944;SDS011;4507;40.232;29.132;2022-08-19T08:56:25;31.40;;;11.47;;
8944;SDS011;4507;40.232;29.132;2022-08-19T08:59:02;103.43;;;16.27;;
8944;SDS011;4507;40.232;29.132;2022-08-19T09:01:35;19.23;;;9.80;;
8944;SDS011;4507;40.232;29.132;2022-08-19T09:04:05;22.90;;;8.70;;
8944;SDS011;4507;40.232;29.132;2022-08-19T09:06:36;437.07;;;43.80;;
8944;SDS011;4507;40.232;29.132;2022-08-19T09:09:17;21.73;;;10.90;;
8944;SDS011;4507;40.232;29.132;2022-08-19T09:11:56;43.60;;;33.90;;
8944;SDS011;4507;40.232;29.132;2022-08-19T09:14:34;28.40;;;18.23;;
8944;SDS011;4507;40.232;29.132;2022-08-19T09:17:18;16.30;;;9.50;;
8944;SDS011;4507;40.232;29.132;2022-08-19T09:19:55;15.37;;;7.53;;
8944;SDS011;4507;40.232;29.132;2022-08-19T09:22:27;22.13;;;15.47;;
8944;SDS011;4507;40.232;29.132;2022-08-19T09:24:56;11.23;;;8.17;;
8944;SDS011;4507;40.232;29.132;2022-08-19T09:27:25;39.60;;;26.03;;
8944;SDS011;4507;40.232;29.132;2022-08-19T09:30:17;23.93;;;14.50;;
8944;SDS011;4507;40.232;29.132;2022-08-19T09:32:48;24.13;;;11.43;;
8944;SDS011;4507;40.232;29.132;2022-08-19T09:35:39;127.27;;;59.77;;
8944;SDS011;4507;40.232;29.132;2022-08-19T09:38:19;20.80;;;11.00;;
8944;SDS011;4507;40.232;29.132;2022-08-19T09:40:48;282.47;;;127.50;;
8944;SDS011;4507;40.232;29.132;2022-08-19T09:43:17;132.10;;;47.80;;
8944;SDS011;4507;40.232;29.132;2022-08-19T09:46:08;73.83;;;27.93;;
8944;SDS011;4507;40.232;29.132;2022-08-19T09:48:40;103.73;;;37.57;;
8944;SDS011;4507;40.232;29.132;2022-08-19T09:51:12;22.63;;;12.23;;
8944;SDS011;4507;40.232;29.132;2022-08-19T09:53:43;22.87;;;12.40;;
8944;SDS011;4507;40.232;29.132;2022-08-19T09:56:13;36.33;;;15.50;;
8944;SDS011;4507;40.232;29.132;2022-08-19T09:58:45;26.37;;;13.43;;
8944;SDS011;4507;40.232;29.132;2022-08-19T10:01:34;19.67;;;11.00;;
8944;SDS011;4507;40.232;29.132;2022-08-19T10:04:04;20.27;;;10.83;;
8944;SDS011;4507;40.232;29.132;2022-08-19T10:06:46;23.97;;;10.07;;
8944;SDS011;4507;40.232;29.132;2022-08-19T10:09:19;27.83;;;11.67;;
8944;SDS011;4507;40.232;29.132;2022-08-19T10:11:59;24.07;;;9.37;;
8944;SDS011;4507;40.232;29.132;2022-08-19T10:14:29;36.57;;;14.60;;
8944;SDS011;4507;40.232;29.132;2022-08-19T10:17:01;27.53;;;11.10;;
8944;SDS011;4507;40.232;29.132;2022-08-19T10:20:06;15.47;;;9.00;;
8944;SDS011;4507;40.232;29.132;2022-08-19T10:22:36;36.73;;;11.87;;
8944;SDS011;4507;40.232;29.132;2022-08-19T10:25:05;16.80;;;8.83;;
8944;SDS011;4507;40.232;29.132;2022-08-19T10:27:35;12.30;;;8.67;;
8944;SDS011;4507;40.232;29.132;2022-08-19T10:30:05;21.03;;;9.83;;
8944;SDS011;4507;40.232;29.132;2022-08-19T10:32:40;24.90;;;8.93;;
8944;SDS011;4507;40.232;29.132;2022-08-19T10:35:12;19.07;;;9.23;;
8944;SDS011;4507;40.232;29.132;2022-08-19T10:37:47;13.90;;;9.43;;
8944;SDS011;4507;40.232;29.132;2022-08-19T10:40:27;13.50;;;10.00;;
8944;SDS011;4507;40.232;29.132;2022-08-19T10:42:57;15.00;;;9.70;;
8944;SDS011;4507;40.232;29.132;2022-08-19T10:45:26;26.60;;;10.20;;
8944;SDS011;4507;40.232;29.132;2022-08-19T10:47:56;18.30;;;9.60;;
8944;SDS011;4507;40.232;29.132;2022-08-19T10:50:25;18.47;;;8.23;;
8944;SDS011;4507;40.232;29.132;2022-08-19T10:53:13;23.60;;;8.47;;
8944;SDS011;4507;40.232;29.132;2022-08-19T10:55:44;27.53;;;9.50;;
8944;SDS011;4507;40.232;29.132;2022-08-19T10:58:30;13.23;;;8.20;;
8944;SDS011;4507;40.232;29.132;2022-08-19T11:00:59;14.30;;;9.30;;
8944;SDS011;4507;40.232;29.132;2022-08-19T11:03:30;19.20;;;9.70;;
8944;SDS011;4507;40.232;29.132;2022-08-19T11:06:18;14.43;;;8.57;;
8944;SDS011;4507;40.232;29.132;2022-08-19T11:08:47;20.83;;;8.93;;
8944;SDS011;4507;40.232;29.132;2022-08-19T11:11:16;19.17;;;8.07;;
8944;SDS011;4507;40.232;29.132;2022-08-19T11:13:45;20.23;;;9.23;;
8944;SDS011;4507;40.232;29.132;2022-08-19T11:16:17;26.83;;;8.73;;
8944;SDS011;4507;40.232;29.132;2022-08-19T11:18:50;15.33;;;8.57;;
8944;SDS011;4507;40.232;29.132;2022-08-19T11:21:22;16.60;;;8.40;;
8944;SDS011;4507;40.232;29.132;2022-08-19T11:23:53;22.10;;;8.83;;
8944;SDS011;4507;40.232;29.132;2022-08-19T11:26:24;17.60;;;8.20;;
8944;SDS011;4507;40.232;29.132;2022-08-19T11:28:53;16.53;;;8.13;;
8944;SDS011;4507;40.232;29.132;2022-08-19T11:31:25;26.23;;;8.97;;
8944;SDS011;4507;40.232;29.132;2022-08-19T11:34:17;16.97;;;8.30;;
8944;SDS011;4507;40.232;29.132;2022-08-19T11:36:48;19.60;;;8.37;;
8944;SDS011;4507;40.232;29.132;2022-08-19T11:39:36;22.83;;;8.30;;
8944;SDS011;4507;40.232;29.132;2022-08-19T11:42:08;31.10;;;9.20;;
8944;SDS011;4507;40.232;29.132;2022-08-19T11:44:55;17.57;;;7.97;;
8944;SDS011;4507;40.232;29.132;2022-08-19T11:47:24;13.43;;;7.40;;
8944;SDS011;4507;40.232;29.132;2022-08-19T11:49:55;18.47;;;8.23;;
8944;SDS011;4507;40.232;29.132;2022-08-19T11:52:24;9.90;;;7.53;;
8944;SDS011;4507;40.232;29.132;2022-08-19T11:54:53;12.97;;;8.27;;
8944;SDS011;4507;40.232;29.132;2022-08-19T11:57:23;23.30;;;8.90;;
8944;SDS011;4507;40.232;29.132;2022-08-19T11:59:52;19.47;;;8.53;;
8944;SDS011;4507;40.232;29.132;2022-08-19T12:05:49;17.53;;;7.57;;
8944;SDS011;4507;40.232;29.132;2022-08-19T12:08:18;15.00;;;7.37;;
8944;SDS011;4507;40.232;29.132;2022-08-19T12:10:48;18.13;;;7.67;;
8944;SDS011;4507;40.232;29.132;2022-08-19T12:13:17;21.53;;;7.67;;
8944;SDS011;4507;40.232;29.132;2022-08-19T12:15:46;18.43;;;7.40;;
8944;SDS011;4507;40.232;29.132;2022-08-19T12:18:16;49.87;;;10.33;;
8944;SDS011;4507;40.232;29.132;2022-08-19T12:20:45;16.67;;;7.43;;
8944;SDS011;4507;40.232;29.132;2022-08-19T12:23:16;23.17;;;8.38;;
8944;SDS011;4507;40.232;29.132;2022-08-19T12:25:46;26.08;;;8.43;;
8944;SDS011;4507;40.232;29.132;2022-08-19T12:28:19;15.18;;;7.18;;
8944;SDS011;4507;40.232;29.132;2022-08-19T12:30:49;28.15;;;7.95;;
8944;SDS011;4507;40.232;29.132;2022-08-19T12:33:19;26.70;;;7.82;;
8944;SDS011;4507;40.232;29.132;2022-08-19T12:36:10;11.63;;;6.93;;
8944;SDS011;4507;40.232;29.132;2022-08-19T12:38:43;16.90;;;7.03;;
8944;SDS011;4507;40.232;29.132;2022-08-19T12:41:14;20.75;;;7.57;;
8944;SDS011;4507;40.232;29.132;2022-08-19T12:43:45;20.67;;;7.38;;
8944;SDS011;4507;40.232;29.132;2022-08-19T12:46:17;16.08;;;6.60;;
8944;SDS011;4507;40.232;29.132;2022-08-19T12:48:51;9.20;;;7.28;;
8944;SDS011;4507;40.232;29.132;2022-08-19T12:51:21;7.90;;;6.55;;
8944;SDS011;4507;40.232;29.132;2022-08-19T12:53:53;11.65;;;6.53;;
8944;SDS011;4507;40.232;29.132;2022-08-19T12:56:22;16.88;;;7.30;;
8944;SDS011;4507;40.232;29.132;2022-08-19T12:58:51;21.05;;;7.57;;
8944;SDS011;4507;40.232;29.132;2022-08-19T13:01:20;37.22;;;8.15;;
8944;SDS011;4507;40.232;29.132;2022-08-19T13:03:49;19.33;;;6.72;;
8944;SDS011;4507;40.232;29.132;2022-08-19T13:06:20;29.63;;;7.03;;
8944;SDS011;4507;40.232;29.132;2022-08-19T13:08:49;22.58;;;6.90;;
8944;SDS011;4507;40.232;29.132;2022-08-19T13:11:26;13.13;;;6.75;;
8944;SDS011;4507;40.232;29.132;2022-08-19T13:13:59;13.00;;;6.82;;
8944;SDS011;4507;40.232;29.132;2022-08-19T13:16:29;10.43;;;5.95;;
8944;SDS011;4507;40.232;29.132;2022-08-19T13:18:59;16.52;;;6.32;;
8944;SDS011;4507;40.232;29.132;2022-08-19T13:21:30;11.00;;;6.70;;
8944;SDS011;4507;40.232;29.132;2022-08-19T13:24:00;48.58;;;9.32;;
8944;SDS011;4507;40.232;29.132;2022-08-19T13:26:30;21.08;;;7.15;;
8944;SDS011;4507;40.232;29.132;2022-08-19T13:28:59;17.23;;;7.25;;
8944;SDS011;4507;40.232;29.132;2022-08-19T13:31:46;11.88;;;7.30;;
8944;SDS011;4507;40.232;29.132;2022-08-19T13:34:33;29.95;;;8.73;;
8944;SDS011;4507;40.232;29.132;2022-08-19T13:37:03;27.07;;;8.17;;
8944;SDS011;4507;40.232;29.132;2022-08-19T13:39:33;22.00;;;7.60;;
8944;SDS011;4507;40.232;29.132;2022-08-19T13:42:04;18.77;;;8.13;;
8944;SDS011;4507;40.232;29.132;2022-08-19T13:44:35;15.00;;;7.20;;
8944;SDS011;4507;40.232;29.132;2022-08-19T13:47:04;44.37;;;8.90;;
8944;SDS011;4507;40.232;29.132;2022-08-19T13:49:53;16.70;;;7.67;;
8944;SDS011;4507;40.232;29.132;2022-08-19T13:52:22;14.17;;;8.23;;
8944;SDS011;4507;40.232;29.132;2022-08-19T13:54:51;15.37;;;7.93;;
8944;SDS011;4507;40.232;29.132;2022-08-19T13:57:22;16.20;;;7.63;;
8944;SDS011;4507;40.232;29.132;2022-08-19T13:59:51;36.90;;;9.00;;
8944;SDS011;4507;40.232;29.132;2022-08-19T14:02:20;26.03;;;8.17;;
8944;SDS011;4507;40.232;29.132;2022-08-19T14:04:49;37.47;;;8.97;;
8944;SDS011;4507;40.232;29.132;2022-08-19T14:07:18;25.83;;;8.10;;
8944;SDS011;4507;40.232;29.132;2022-08-19T14:09:48;32.00;;;8.70;;
8944;SDS011;4507;40.232;29.132;2022-08-19T14:12:18;35.90;;;9.00;;
8944;SDS011;4507;40.232;29.132;2022-08-19T14:15:14;31.10;;;8.63;;
8944;SDS011;4507;40.232;29.132;2022-08-19T14:17:44;22.57;;;7.47;;
8944;SDS011;4507;40.232;29.132;2022-08-19T14:20:34;15.47;;;7.90;;
8944;SDS011;4507;40.232;29.132;2022-08-19T14:23:04;27.90;;;8.53;;
8944;SDS011;4507;40.232;29.132;2022-08-19T14:25:33;38.73;;;8.73;;
8944;SDS011;4507;40.232;29.132;2022-08-19T14:28:02;15.87;;;7.37;;
8944;SDS011;4507;40.232;29.132;2022-08-19T14:30:33;32.40;;;7.93;;
8944;SDS011;4507;40.232;29.132;2022-08-19T14:33:04;39.07;;;8.53;;
8944;SDS011;4507;40.232;29.132;2022-08-19T14:35:37;13.47;;;7.10;;
8944;SDS011;4507;40.232;29.132;2022-08-19T14:38:30;18.83;;;7.20;;
8944;SDS011;4507;40.232;29.132;2022-08-19T14:41:06;22.20;;;7.23;;
8944;SDS011;4507;40.232;29.132;2022-08-19T14:43:36;27.07;;;7.67;;
8944;SDS011;4507;40.232;29.132;2022-08-19T14:46:07;22.10;;;6.97;;
8944;SDS011;4507;40.232;29.132;2022-08-19T14:48:37;35.67;;;7.23;;
8944;SDS011;4507;40.232;29.132;2022-08-19T14:51:07;30.77;;;7.63;;
8944;SDS011;4507;40.232;29.132;2022-08-19T14:53:37;31.50;;;7.93;;
8944;SDS011;4507;40.232;29.132;2022-08-19T14:56:07;24.10;;;7.47;;
8944;SDS011;4507;40.232;29.132;2022-08-19T14:58:37;52.80;;;8.77;;
8944;SDS011;4507;40.232;29.132;2022-08-19T15:01:09;35.83;;;8.07;;
8944;SDS011;4507;40.232;29.132;2022-08-19T15:03:43;41.33;;;8.00;;
8944;SDS011;4507;40.232;29.132;2022-08-19T15:06:18;61.30;;;9.77;;
8944;SDS011;4507;40.232;29.132;2022-08-19T15:08:49;49.10;;;8.97;;
8944;SDS011;4507;40.232;29.132;2022-08-19T15:11:30;39.07;;;7.77;;
8944;SDS011;4507;40.232;29.132;2022-08-19T15:14:00;32.37;;;7.47;;
8944;SDS011;4507;40.232;29.132;2022-08-19T15:16:45;39.67;;;8.47;;
8944;SDS011;4507;40.232;29.132;2022-08-19T15:19:14;34.27;;;7.77;;
8944;SDS011;4507;40.232;29.132;2022-08-19T15:21:48;30.03;;;8.83;;
8944;SDS011;4507;40.232;29.132;2022-08-19T15:24:17;25.40;;;7.93;;
8944;SDS011;4507;40.232;29.132;2022-08-19T15:26:46;46.67;;;9.50;;
8944;SDS011;4507;40.232;29.132;2022-08-19T15:29:19;36.00;;;9.17;;
8944;SDS011;4507;40.232;29.132;2022-08-19T15:31:58;54.83;;;9.67;;
8944;SDS011;4507;40.232;29.132;2022-08-19T15:34:46;52.30;;;9.07;;
8944;SDS011;4507;40.232;29.132;2022-08-19T15:37:15;39.83;;;8.73;;
8944;SDS011;4507;40.232;29.132;2022-08-19T15:39:44;42.43;;;8.60;;
8944;SDS011;4507;40.232;29.132;2022-08-19T15:42:13;50.87;;;9.10;;
8944;SDS011;4507;40.232;29.132;2022-08-19T15:44:55;84.20;;;10.60;;
8944;SDS011;4507;40.232;29.132;2022-08-19T15:47:29;58.90;;;9.90;;
8944;SDS011;4507;40.232;29.132;2022-08-19T15:50:04;64.63;;;11.50;;
8944;SDS011;4507;40.232;29.132;2022-08-19T15:52:41;35.70;;;8.87;;
8944;SDS011;4507;40.232;29.132;2022-08-19T15:55:16;44.33;;;9.47;;
8944;SDS011;4507;40.232;29.132;2022-08-19T15:58:18;49.17;;;8.83;;
8944;SDS011;4507;40.232;29.132;2022-08-19T16:01:05;52.57;;;9.53;;
8944;SDS011;4507;40.232;29.132;2022-08-19T16:03:55;65.97;;;10.83;;
8944;SDS011;4507;40.232;29.132;2022-08-19T16:06:45;48.27;;;10.27;;
8944;SDS011;4507;40.232;29.132;2022-08-19T16:09:16;39.73;;;8.80;;
8944;SDS011;4507;40.232;29.132;2022-08-19T16:11:52;27.20;;;8.73;;
8944;SDS011;4507;40.232;29.132;2022-08-19T16:14:27;57.77;;;11.13;;
8944;SDS011;4507;40.232;29.132;2022-08-19T16:16:56;55.30;;;10.37;;
8944;SDS011;4507;40.232;29.132;2022-08-19T16:19:30;53.13;;;10.50;;
8944;SDS011;4507;40.232;29.132;2022-08-19T16:21:59;36.20;;;9.50;;
8944;SDS011;4507;40.232;29.132;2022-08-19T16:24:28;27.10;;;9.20;;
8944;SDS011;4507;40.232;29.132;2022-08-19T16:26:59;54.50;;;10.63;;
8944;SDS011;4507;40.232;29.132;2022-08-19T16:29:28;53.27;;;10.80;;
8944;SDS011;4507;40.232;29.132;2022-08-19T16:32:05;29.37;;;8.90;;
8944;SDS011;4507;40.232;29.132;2022-08-19T16:34:38;58.40;;;10.87;;
8944;SDS011;4507;40.232;29.132;2022-08-19T16:37:09;25.30;;;8.47;;
8944;SDS011;4507;40.232;29.132;2022-08-19T16:39:38;27.50;;;9.27;;
8944;SDS011;4507;40.232;29.132;2022-08-19T16:42:10;43.57;;;10.30;;
8944;SDS011;4507;40.232;29.132;2022-08-19T16:44:40;53.00;;;10.43;;
8944;SDS011;4507;40.232;29.132;2022-08-19T16:47:11;56.57;;;10.20;;
8944;SDS011;4507;40.232;29.132;2022-08-19T16:49:42;41.43;;;10.17;;
8944;SDS011;4507;40.232;29.132;2022-08-19T16:52:20;54.43;;;9.90;;
8944;SDS011;4507;40.232;29.132;2022-08-19T16:54:52;37.77;;;8.73;;
8944;SDS011;4507;40.232;29.132;2022-08-19T16:57:21;46.10;;;9.97;;
8944;SDS011;4507;40.232;29.132;2022-08-19T16:59:50;42.77;;;9.73;;
8944;SDS011;4507;40.232;29.132;2022-08-19T17:02:20;42.67;;;9.10;;
8944;SDS011;4507;40.232;29.132;2022-08-19T17:04:57;62.33;;;10.97;;